Time;durP1;ratioP1;P1;durP2;ratioP2;P2;SDS_P1;SDS_P2;PMS_P1;PMS_P2;Temp;Humidity;BMP_temperature;BMP_pressure;BME280_temperature;BME280_humidity;BME280_pressure;Samples;Min_cycle;Max_cycle;Signal;HPM_P1;HPM_P2
2022/10/13 08:01:30;;;;;;;21.63;16.23;;;;;;;12.61;94.51;101533.50;5267079;28;20403;-85
2022/10/13 08:04:02;;;;;;;21.45;15.27;;;;;;;12.68;94.17;101532.34;5269028;28;20032;-85
2022/10/13 08:06:34;;;;;;;21.23;13.88;;;;;;;12.81;93.53;101537.31;5268698;28;20184;-86
2022/10/13 08:09:05;;;;;;;24.48;14.38;;;;;;;12.78;93.34;101532.28;5268377;28;20502;-85
2022/10/13 08:11:37;;;;;;;20.65;14.07;;;;;;;12.83;93.37;101533.13;5270777;28;20025;-86
2022/10/13 08:14:09;;;;;;;21.02;14.75;;;;;;;12.83;93.63;101533.13;5268178;28;20033;-88
2022/10/13 08:16:44;;;;;;;19.20;13.70;;;;;;;12.87;93.07;101536.16;5272416;28;20096;-85
2022/10/13 08:19:17;;;;;;;19.13;14.48;;;;;;;12.89;93.31;101533.91;5275413;28;20021;-85
2022/10/13 08:21:52;;;;;;;16.55;13.52;;;;;;;12.91;92.62;101528.88;5275035;28;20022;-81
2022/10/13 08:24:23;;;;;;;20.02;13.52;;;;;;;13.00;92.88;101529.91;5262109;28;20049;-85
2022/10/13 08:26:54;;;;;;;20.30;13.02;;;;;;;12.99;92.49;101527.44;5248603;28;20034;-84
2022/10/13 08:29:26;;;;;;;17.80;12.60;;;;;;;13.03;91.30;101523.78;5250453;28;20195;-87
2022/10/13 08:31:57;;;;;;;18.08;13.45;;;;;;;13.11;92.03;101518.72;5264019;28;20380;-87
2022/10/13 08:34:28;;;;;;;16.45;12.80;;;;;;;13.14;91.24;101518.13;5271799;28;20116;-85
2022/10/13 08:37:02;;;;;;;18.73;13.60;;;;;;;13.19;91.23;101506.94;5265915;28;20033;-86
2022/10/13 08:39:33;;;;;;;20.85;13.23;;;;;;;13.25;90.36;101514.97;5271001;28;20013;-84
2022/10/13 08:42:20;;;;;;;21.30;12.85;;;;;;;13.28;90.71;101519.16;5262218;28;20473;-84
2022/10/13 08:44:59;;;;;;;20.88;13.40;;;;;;;13.26;90.82;101515.78;5264824;28;20025;-86
2022/10/13 08:47:40;;;;;;;18.80;12.25;;;;;;;13.34;90.75;101517.97;5259669;28;20056;-78
2022/10/13 08:50:16;;;;;;;16.55;12.98;;;;;;;13.31;90.72;101515.78;5257294;28;20025;-78
2022/10/13 08:52:59;;;;;;;18.10;12.45;;;;;;;13.38;90.35;101519.06;5258284;28;20025;-78
2022/10/13 08:55:35;;;;;;;17.83;12.25;;;;;;;13.46;90.91;101517.59;5262717;28;20485;-86
2022/10/13 08:58:18;;;;;;;17.90;13.73;;;;;;;13.39;90.18;101517.13;5262209;28;20487;-85
2022/10/13 09:01:18;;;;;;;19.60;12.20;;;;;;;13.44;90.13;101512.31;5279367;28;20499;-85
2022/10/13 09:04:06;;;;;;;20.15;12.65;;;;;;;13.45;90.32;101508.44;5276461;28;20033;-85
2022/10/13 09:06:43;;;;;;;16.67;11.90;;;;;;;13.46;90.12;101500.88;5268405;28;20120;-84
2022/10/13 09:09:15;;;;;;;14.07;9.93;;;;;;;13.67;89.76;101493.16;5259856;28;20022;-86
2022/10/13 09:11:49;;;;;;;14.85;11.98;;;;;;;13.58;89.26;101492.97;5250841;28;20013;-86
2022/10/13 09:14:26;;;;;;;15.10;10.25;;;;;;;13.68;89.29;101500.41;5245920;28;20083;-85
2022/10/13 09:17:15;;;;;;;20.08;13.95;;;;;;;13.55;88.74;101507.50;5247396;28;20029;-86
2022/10/13 09:19:57;;;;;;;15.82;11.93;;;;;;;13.55;89.26;101513.06;5244033;28;20029;-80
2022/10/13 09:22:31;;;;;;;18.75;13.35;;;;;;;13.50;88.96;101504.75;5251507;28;20114;-79
2022/10/13 09:25:05;;;;;;;16.80;12.90;;;;;;;13.46;89.02;101498.94;5242879;28;20024;-80
2022/10/13 09:27:58;;;;;;;18.80;13.57;;;;;;;13.52;89.11;101499.69;5244580;28;20104;-80
2022/10/13 09:30:41;;;;;;;18.08;12.43;;;;;;;13.63;89.14;101498.50;5243896;28;20047;-79
2022/10/13 09:33:19;;;;;;;18.27;13.10;;;;;;;13.58;88.68;101489.38;5243424;28;20480;-79
2022/10/13 09:35:56;;;;;;;16.92;13.32;;;;;;;13.55;88.47;101484.34;5243798;28;20476;-81
2022/10/13 09:38:29;;;;;;;19.40;15.15;;;;;;;13.64;88.24;101488.16;5244262;28;20029;-78
2022/10/13 09:41:05;;;;;;;19.25;13.65;;;;;;;13.61;88.72;101494.34;5251906;28;20026;-79
2022/10/13 09:43:45;;;;;;;13.18;11.02;;;;;;;13.76;88.36;101496.97;5251884;28;20029;-78
2022/10/13 09:46:26;;;;;;;17.95;13.13;;;;;;;13.66;88.33;101492.31;5249793;28;20021;-79
2022/10/13 09:49:03;;;;;;;13.93;11.60;;;;;;;13.80;88.23;101486.03;5262774;28;20032;-80
2022/10/13 09:51:41;;;;;;;16.25;11.88;;;;;;;13.70;89.01;101489.75;5254690;28;20472;-78
2022/10/13 09:54:33;;;;;;;22.38;13.57;;;;;;;13.68;89.95;101489.25;5243720;28;20065;-77
2022/10/13 09:57:39;;;;;;;16.55;11.88;;;;;;;13.69;89.72;101490.91;5245208;28;20583;-78
2022/10/13 10:00:24;;;;;;;17.65;11.45;;;;;;;13.64;89.57;101482.59;5243964;28;20420;-80
2022/10/13 10:03:17;;;;;;;19.05;12.52;;;;;;;13.72;91.19;101490.31;5244401;28;20038;-80
2022/10/13 10:06:11;;;;;;;14.35;11.48;;;;;;;13.73;91.19;101485.56;5252404;28;20033;-83
2022/10/13 10:08:51;;;;;;;15.45;12.73;;;;;;;13.85;90.93;101478.44;5248654;28;20022;-83
2022/10/13 10:11:29;;;;;;;15.65;12.57;;;;;;;13.69;91.05;101480.59;5257460;28;20096;-85
2022/10/13 10:14:18;;;;;;;14.65;10.43;;;;;;;13.88;91.13;101477.88;5247085;28;20381;-82
2022/10/13 10:16:57;;;;;;;16.38;12.35;;;;;;;13.66;91.81;101477.56;5239941;28;20379;-86
2022/10/13 10:19:51;;;;;;;15.73;12.95;;;;;;;13.69;91.58;101475.00;5248506;28;20052;-85
2022/10/13 10:22:23;;;;;;;15.45;11.38;;;;;;;13.77;92.30;101473.53;5246547;28;20029;-85
2022/10/13 10:25:24;;;;;;;17.85;12.80;;;;;;;13.76;92.24;101466.31;5232824;28;20022;-85
2022/10/13 10:28:13;;;;;;;14.85;10.98;;;;;;;13.86;92.03;101466.19;5236007;28;20504;-85
2022/10/13 10:31:00;;;;;;;13.60;12.20;;;;;;;13.82;93.17;101467.06;5246061;28;20032;-78
2022/10/13 10:33:48;;;;;;;17.52;12.85;;;;;;;13.80;94.09;101470.13;5242184;28;20056;-79
2022/10/13 10:36:33;;;;;;;15.18;13.50;;;;;;;13.72;94.61;101470.78;5241943;28;20037;-77
2022/10/13 10:39:20;;;;;;;18.48;12.55;;;;;;;13.69;94.48;101471.41;5248376;28;20029;-77
2022/10/13 10:41:57;;;;;;;17.35;11.57;;;;;;;13.81;94.05;101474.59;5231554;28;20096;-79
2022/10/13 10:44:36;;;;;;;22.25;14.57;;;;;;;13.72;95.17;101468.00;5256687;28;20093;-83
2022/10/13 10:47:25;;;;;;;19.02;13.35;;;;;;;13.84;94.89;101473.19;5258646;28;20500;-85
2022/10/13 10:50:04;;;;;;;20.05;16.90;;;;;;;13.79;95.63;101468.50;5255716;28;20036;-84
2022/10/13 10:52:51;;;;;;;19.30;13.77;;;;;;;13.78;96.02;101469.63;5250070;28;20064;-83
2022/10/13 10:55:32;;;;;;;16.55;13.73;;;;;;;13.85;95.30;101472.88;5249777;28;20057;-85
2022/10/13 10:58:04;;;;;;;15.88;13.80;;;;;;;13.82;95.40;101461.50;5258244;28;20111;-84
2022/10/13 11:01:05;;;;;;;23.38;18.27;;;;;;;13.92;94.91;101462.19;5243852;28;20133;-83
2022/10/13 11:03:49;;;;;;;16.02;13.27;;;;;;;13.85;93.87;101456.13;5247483;28;20496;-83
2022/10/13 11:06:25;;;;;;;18.75;12.68;;;;;;;13.85;93.74;101455.31;5245265;28;20112;-84
2022/10/13 11:08:57;;;;;;;16.67;12.30;;;;;;;13.86;93.94;101451.41;5250822;28;20091;-84
2022/10/13 11:11:32;;;;;;;17.02;13.20;;;;;;;13.89;94.78;101451.66;5252357;28;20091;-82
2022/10/13 11:14:06;;;;;;;13.82;12.15;;;;;;;13.92;95.19;101448.25;5271666;28;20093;-79
2022/10/13 11:16:37;;;;;;;16.33;11.82;;;;;;;13.97;95.27;101452.13;5244384;28;20388;-78
2022/10/13 11:19:33;;;;;;;15.80;12.87;;;;;;;13.94;95.02;101447.16;5258957;28;20033;-84
2022/10/13 11:22:04;;;;;;;16.92;11.65;;;;;;;14.03;94.52;101440.59;5267954;28;20287;-82
2022/10/13 11:24:37;;;;;;;14.80;12.07;;;;;;;13.94;94.11;101439.59;5241338;28;20034;-84
2022/10/13 11:27:39;;;;;;;17.95;12.15;;;;;;;13.88;95.49;101450.00;5223611;28;20423;-85
2022/10/13 11:30:40;;;;;;;16.00;11.20;;;;;;;13.89;95.83;101434.91;5238381;28;20361;-84
2022/10/13 11:33:36;;;;;;;15.38;10.15;;;;;;;13.92;95.92;101433.50;5252373;28;20080;-85
2022/10/13 11:36:26;;;;;;;11.32;10.07;;;;;;;13.95;96.33;101432.06;5255306;28;20060;-85
2022/10/13 11:39:15;;;;;;;12.25;9.85;;;;;;;14.00;95.88;101430.03;5247194;28;20082;-78
2022/10/13 11:42:29;;;;;;;10.52;9.00;;;;;;;14.11;94.50;101430.72;5251517;28;20175;-80
2022/10/13 11:45:44;;;;;;;11.57;9.02;;;;;;;14.08;94.10;101437.72;5241159;28;20033;-82
2022/10/13 11:48:35;;;;;;;12.57;8.75;;;;;;;13.97;93.16;101427.03;5241172;28;20045;-85
2022/10/13 11:51:22;;;;;;;11.15;9.30;;;;;;;13.94;93.79;101420.09;5237920;28;20048;-83
2022/10/13 11:54:12;;;;;;;10.13;9.05;;;;;;;13.98;94.35;101420.31;5258395;28;20460;-84
2022/10/13 11:56:47;;;;;;;12.35;9.40;;;;;;;14.11;93.90;101413.97;5254745;28;20040;-82
2022/10/13 11:59:24;;;;;;;12.32;8.63;;;;;;;13.96;94.39;101412.25;5245296;28;20167;-83
2022/10/13 12:02:04;;;;;;;12.98;9.52;;;;;;;13.96;95.01;101416.97;5249709;28;20477;-81
2022/10/13 12:04:39;;;;;;;12.80;9.93;;;;;;;13.89;95.40;101406.22;5248026;28;20029;-83
2022/10/13 12:07:14;;;;;;;12.20;9.32;;;;;;;13.88;94.98;101416.53;5244543;28;20029;-83
2022/10/13 12:09:51;;;;;;;12.40;9.35;;;;;;;13.86;95.79;101416.00;5266983;28;20126;-84
2022/10/13 12:12:24;;;;;;;9.98;8.30;;;;;;;13.89;95.73;101407.03;5258752;28;20060;-83
2022/10/13 12:14:56;;;;;;;11.40;8.70;;;;;;;13.96;95.69;101411.41;5241651;28;20152;-84
2022/10/13 12:17:30;;;;;;;10.20;8.18;;;;;;;13.99;95.55;101410.81;5250267;28;20026;-87
2022/10/13 12:20:20;;;;;;;17.55;10.00;;;;;;;13.92;95.68;101412.00;5242462;28;20025;-84
2022/10/13 12:22:53;;;;;;;11.55;10.00;;;;;;;13.94;95.35;101405.31;5245933;28;20465;-83
2022/10/13 12:25:28;;;;;;;12.70;9.75;;;;;;;13.86;96.12;101407.63;5224891;28;20022;-84
2022/10/13 12:27:59;;;;;;;13.70;10.63;;;;;;;13.89;97.11;101407.03;5243195;28;20104;-84
2022/10/13 12:30:36;;;;;;;15.40;9.55;;;;;;;13.99;96.22;101402.47;5246807;28;20042;-84
2022/10/13 12:33:27;;;;;;;12.43;11.15;;;;;;;13.95;96.70;101398.59;5247751;28;20028;-83
2022/10/13 12:36:12;;;;;;;12.98;10.38;;;;;;;13.98;96.98;101392.41;5243598;28;20029;-81
2022/10/13 12:38:49;;;;;;;15.88;11.05;;;;;;;13.89;96.97;101398.66;5247254;28;20040;-74
2022/10/13 12:41:27;;;;;;;13.88;11.18;;;;;;;13.86;98.11;101396.47;5258556;28;20032;-74
2022/10/13 12:43:59;;;;;;;16.67;12.40;;;;;;;13.78;98.73;101393.50;5261561;28;20502;-75
2022/10/13 12:46:34;;;;;;;15.43;11.55;;;;;;;13.79;99.47;101396.00;5226049;28;20037;-75
2022/10/13 12:49:13;;;;;;;11.90;10.65;;;;;;;13.81;99.63;101395.72;5249035;28;20087;-75
2022/10/13 12:51:48;;;;;;;15.00;11.57;;;;;;;13.79;99.54;101389.63;5242588;28;20025;-74
2022/10/13 12:54:46;;;;;;;16.63;12.50;;;;;;;13.79;100.00;101390.44;5246134;28;20523;-75
2022/10/13 12:57:37;;;;;;;14.02;11.48;;;;;;;13.75;100.00;101388.53;5244857;28;20028;-74
2022/10/13 13:00:17;;;;;;;21.20;12.75;;;;;;;13.79;100.00;101382.06;5265002;28;20173;-74
2022/10/13 13:02:56;;;;;;;15.82;12.00;;;;;;;13.78;100.00;101386.00;5262909;28;20052;-81
2022/10/13 13:05:33;;;;;;;14.25;11.95;;;;;;;13.80;100.00;101391.25;5253917;28;20047;-81
2022/10/13 13:08:22;;;;;;;17.35;14.98;;;;;;;13.88;100.00;101377.50;5245702;28;20084;-78
2022/10/13 13:10:57;;;;;;;12.98;11.25;;;;;;;13.85;100.00;101383.66;5253394;28;20095;-83
2022/10/13 13:13:29;;;;;;;14.40;12.88;;;;;;;13.86;100.00;101376.97;5265769;28;20074;-83
2022/10/13 13:16:15;;;;;;;17.75;13.13;;;;;;;13.86;100.00;101378.94;5250678;28;20035;-81
2022/10/13 13:18:47;;;;;;;21.90;12.98;;;;;;;13.85;100.00;101383.66;5245100;28;20037;-82
2022/10/13 13:21:19;;;;;;;13.02;10.38;;;;;;;13.97;100.00;101376.84;5244858;28;20036;-76
2022/10/13 13:23:50;;;;;;;17.98;13.77;;;;;;;13.87;100.00;101381.41;5236295;28;20025;-77
2022/10/13 13:26:22;;;;;;;16.15;12.73;;;;;;;13.87;100.00;101375.81;5256541;28;20083;-82
2022/10/13 13:28:55;;;;;;;13.95;12.02;;;;;;;13.75;100.00;101377.38;5265679;28;20052;-81
2022/10/13 13:31:26;;;;;;;14.50;12.68;;;;;;;13.80;100.00;101374.53;5263397;28;20040;-81
2022/10/13 13:33:57;;;;;;;14.15;11.77;;;;;;;13.80;100.00;101369.78;5253491;28;20018;-82
2022/10/13 13:36:29;;;;;;;15.77;12.13;;;;;;;13.80;100.00;101375.34;5258697;28;20033;-81
2022/10/13 13:39:01;;;;;;;14.88;12.10;;;;;;;13.82;100.00;101366.72;5242664;28;20055;-77
2022/10/13 13:41:32;;;;;;;14.88;13.02;;;;;;;13.83;100.00;101366.41;5243052;28;20051;-77
2022/10/13 13:44:04;;;;;;;15.48;11.10;;;;;;;13.83;100.00;101369.22;5243661;28;20532;-77
2022/10/13 13:46:35;;;;;;;15.02;12.52;;;;;;;13.88;100.00;101371.06;5242824;28;20463;-77
2022/10/13 13:49:09;;;;;;;12.23;11.00;;;;;;;13.90;100.00;101361.28;5243703;28;20033;-75
2022/10/13 13:51:40;;;;;;;14.82;12.25;;;;;;;13.89;100.00;101362.41;5222128;28;20444;-76
2022/10/13 13:54:11;;;;;;;15.63;11.80;;;;;;;13.92;100.00;101361.81;5236589;28;20029;-76
2022/10/13 13:56:43;;;;;;;14.57;11.45;;;;;;;13.89;100.00;101361.59;5247033;28;20056;-84
2022/10/13 13:59:14;;;;;;;11.57;10.38;;;;;;;13.87;100.00;101361.06;5257568;28;20479;-79
2022/10/13 14:01:45;;;;;;;12.38;11.13;;;;;;;14.01;100.00;101361.13;5264107;28;20087;-80
2022/10/13 14:04:19;;;;;;;15.15;13.63;;;;;;;13.91;100.00;101362.97;5263868;28;20057;-80
2022/10/13 14:06:51;;;;;;;13.48;11.25;;;;;;;13.89;100.00;101365.22;5263096;28;20074;-81
2022/10/13 14:09:23;;;;;;;13.30;11.95;;;;;;;14.03;100.00;101365.28;5264198;28;20021;-81
2022/10/13 14:11:54;;;;;;;12.75;10.90;;;;;;;13.98;100.00;101359.78;5261661;28;20556;-80
2022/10/13 14:14:25;;;;;;;11.80;10.32;;;;;;;14.15;100.00;101356.47;5247968;28;20029;-80
2022/10/13 14:16:58;;;;;;;14.13;12.18;;;;;;;14.12;100.00;101354.31;5247014;28;20026;-81
2022/10/13 14:19:31;;;;;;;11.57;10.13;;;;;;;14.19;100.00;101357.56;5246272;28;20022;-81
2022/10/13 14:22:03;;;;;;;13.98;12.23;;;;;;;14.13;100.00;101353.16;5243573;28;20022;-78
2022/10/13 14:24:34;;;;;;;12.60;11.27;;;;;;;14.13;100.00;101355.94;5253597;28;20025;-76
2022/10/13 14:27:07;;;;;;;13.00;11.63;;;;;;;14.17;100.00;101358.97;5261076;28;20452;-81
2022/10/13 14:29:39;;;;;;;16.13;12.57;;;;;;;14.13;100.00;101355.94;5245214;28;20021;-81
2022/10/13 14:32:10;;;;;;;13.70;11.80;;;;;;;14.13;100.00;101355.94;5242583;28;20405;-82
2022/10/13 14:34:41;;;;;;;16.40;11.63;;;;;;;14.18;100.00;101352.25;5242566;28;20030;-80
2022/10/13 14:37:13;;;;;;;14.40;12.88;;;;;;;14.14;100.00;101354.84;5243933;28;20021;-81
2022/10/13 14:39:46;;;;;;;16.15;13.55;;;;;;;14.16;100.00;101357.31;5243097;28;20052;-78
2022/10/13 14:42:20;;;;;;;23.80;15.02;;;;;;;14.06;100.00;101359.13;5242040;28;20040;-77
2022/10/13 14:44:52;;;;;;;16.02;12.93;;;;;;;14.14;100.00;101358.44;5242653;28;20032;-78
2022/10/13 14:47:23;;;;;;;16.25;14.65;;;;;;;14.20;100.00;101345.25;5246907;28;20021;-80
2022/10/13 14:49:54;;;;;;;16.50;13.50;;;;;;;14.20;100.00;101344.44;5249367;28;20026;-79
2022/10/13 14:52:26;;;;;;;17.30;14.45;;;;;;;14.20;100.00;101342.47;5251335;28;20156;-81
2022/10/13 14:54:57;;;;;;;15.75;13.82;;;;;;;14.13;100.00;101353.97;5245080;28;20128;-80
2022/10/13 14:57:29;;;;;;;17.13;13.00;;;;;;;14.17;100.00;101345.03;5244698;28;20037;-78
2022/10/13 15:00:00;;;;;;;15.23;13.63;;;;;;;14.05;100.00;101351.06;5246082;28;20079;-80
2022/10/13 15:02:31;;;;;;;19.40;13.90;;;;;;;14.00;100.00;101343.59;5242330;28;20026;-80
2022/10/13 15:05:03;;;;;;;17.23;14.05;;;;;;;14.05;100.00;101349.09;5241108;28;20030;-76
2022/10/13 15:07:34;;;;;;;52.13;17.38;;;;;;;14.09;100.00;101335.38;5252820;28;20032;-77
2022/10/13 15:10:06;;;;;;;17.33;15.20;;;;;;;14.12;100.00;101337.56;5239786;28;20381;-76
2022/10/13 15:12:37;;;;;;;19.35;14.77;;;;;;;14.09;100.00;101324.22;5241907;28;20105;-76
2022/10/13 15:15:09;;;;;;;17.75;15.27;;;;;;;14.10;100.00;101334.25;5242682;28;20029;-80
2022/10/13 15:17:40;;;;;;;16.35;13.00;;;;;;;14.14;100.00;101324.97;5253107;28;20361;-80
2022/10/13 15:20:12;;;;;;;14.88;13.23;;;;;;;14.25;100.00;101330.41;5245785;28;20116;-81
2022/10/13 15:22:43;;;;;;;15.30;13.57;;;;;;;14.21;100.00;101334.91;5236385;28;20030;-82
2022/10/13 15:25:15;;;;;;;16.23;13.45;;;;;;;14.21;100.00;101340.50;5227183;28;20089;-83
2022/10/13 15:27:46;;;;;;;17.23;13.73;;;;;;;14.21;100.00;101323.75;5262546;28;20021;-82
2022/10/13 15:30:17;;;;;;;15.68;12.30;;;;;;;14.41;100.00;101336.56;5242093;28;20057;-83
2022/10/13 15:32:49;;;;;;;15.90;13.23;;;;;;;14.28;100.00;101322.25;5254391;28;20083;-81
2022/10/13 15:35:20;;;;;;;14.63;12.13;;;;;;;14.33;100.00;101322.16;5245017;28;20032;-82
2022/10/13 15:37:52;;;;;;;16.40;13.57;;;;;;;14.24;100.00;101323.16;5242497;28;20017;-81
2022/10/13 15:40:23;;;;;;;15.90;13.05;;;;;;;14.21;100.00;101323.75;5247695;28;20036;-79
2022/10/13 15:42:55;;;;;;;16.27;12.20;;;;;;;14.34;100.00;101331.34;5251696;28;20021;-83
2022/10/13 15:45:26;;;;;;;17.33;13.85;;;;;;;14.18;100.00;101332.75;5241483;28;20017;-82
2022/10/13 15:47:57;;;;;;;17.27;13.25;;;;;;;14.17;100.00;101325.50;5252650;28;20507;-79
2022/10/13 15:50:29;;;;;;;16.02;12.55;;;;;;;14.26;100.00;101320.88;5249611;28;20396;-75
2022/10/13 15:53:00;;;;;;;18.02;12.65;;;;;;;14.17;100.00;101328.31;5248074;28;20112;-75
2022/10/13 15:55:32;;;;;;;14.95;12.00;;;;;;;14.07;100.00;101320.91;5250818;28;20033;-78
2022/10/13 15:58:03;;;;;;;14.93;11.77;;;;;;;14.13;100.00;101328.06;5249272;28;20044;-75
2022/10/13 16:00:34;;;;;;;16.42;14.70;;;;;;;13.99;100.00;101333.56;5243601;28;20041;-76
2022/10/13 16:03:06;;;;;;;13.90;11.30;;;;;;;14.04;100.00;101327.09;5240891;28;20035;-73
2022/10/13 16:05:41;;;;;;;13.95;12.40;;;;;;;14.06;100.00;101327.59;5240080;28;20373;-71
2022/10/13 16:08:13;;;;;;;15.65;12.70;;;;;;;13.98;100.00;101326.31;5241188;28;20032;-70
2022/10/13 16:10:44;;;;;;;14.65;12.30;;;;;;;13.99;100.00;101324.38;5241038;28;20021;-70
2022/10/13 16:13:15;;;;;;;14.75;13.35;;;;;;;13.96;100.00;101322.16;5239294;28;20033;-69
2022/10/13 16:15:57;;;;;;;16.27;13.27;;;;;;;13.97;100.00;101323.84;5240670;28;20024;-70
2022/10/13 16:18:38;;;;;;;19.63;13.77;;;;;;;13.95;100.00;101320.53;5241185;28;20030;-71
2022/10/13 16:21:12;;;;;;;20.45;14.63;;;;;;;13.91;100.00;101317.53;5240535;28;20065;-68
2022/10/13 16:23:43;;;;;;;16.27;14.05;;;;;;;13.86;100.00;101314.81;5242538;28;20099;-71
2022/10/13 16:26:16;;;;;;;16.33;12.95;;;;;;;13.85;100.00;101313.13;5244149;28;20060;-70
2022/10/13 16:28:47;;;;;;;14.77;13.23;;;;;;;13.88;100.00;101316.16;5245060;28;20024;-72
2022/10/13 16:31:19;;;;;;;16.90;15.25;;;;;;;13.86;100.00;101318.41;5244348;28;20029;-71
2022/10/13 16:33:50;;;;;;;16.95;14.40;;;;;;;13.85;100.00;101325.09;5244339;28;20483;-71
2022/10/13 16:36:23;;;;;;;15.18;12.75;;;;;;;13.82;100.00;101322.94;5244654;28;20041;-70
2022/10/13 16:38:54;;;;;;;18.13;14.65;;;;;;;13.85;100.00;101325.09;5245010;28;20028;-70
2022/10/13 16:41:26;;;;;;;18.52;15.20;;;;;;;13.77;100.00;101319.38;5243981;28;20037;-70
2022/10/13 16:43:57;;;;;;;18.02;14.70;;;;;;;13.79;100.00;101325.50;5245055;28;20021;-71
2022/10/13 16:46:28;;;;;;;16.50;13.30;;;;;;;13.83;100.00;101329.31;5242169;28;20021;-71
2022/10/13 16:49:00;;;;;;;21.30;19.00;;;;;;;13.86;100.00;101323.16;5243697;28;20030;-71
2022/10/13 16:51:31;;;;;;;20.55;14.98;;;;;;;13.82;100.00;101328.50;5244542;28;20503;-71
2022/10/13 16:54:05;;;;;;;17.95;14.85;;;;;;;13.82;100.00;101330.47;5244467;28;20040;-71
2022/10/13 16:56:36;;;;;;;16.58;13.82;;;;;;;13.76;100.00;101332.50;5243281;28;20063;-71
2022/10/13 16:59:09;;;;;;;16.40;14.38;;;;;;;13.76;100.00;101337.25;5244475;28;20025;-70
2022/10/13 17:01:40;;;;;;;19.48;14.68;;;;;;;13.69;100.00;101346.78;5243661;28;20065;-69
2022/10/13 17:04:11;;;;;;;17.42;13.93;;;;;;;13.72;100.00;101344.53;5243654;28;20105;-69
2022/10/13 17:06:43;;;;;;;18.48;14.48;;;;;;;13.75;100.00;101335.56;5244444;28;20025;-69
2022/10/13 17:09:14;;;;;;;17.67;15.00;;;;;;;13.71;100.00;101338.13;5243521;28;20025;-69
2022/10/13 17:11:45;;;;;;;16.10;14.48;;;;;;;13.73;100.00;101349.81;5244371;28;20079;-71
2022/10/13 17:14:17;;;;;;;15.93;14.38;;;;;;;13.64;100.00;101355.22;5244500;28;20026;-71
2022/10/13 17:16:48;;;;;;;17.83;15.60;;;;;;;13.62;100.00;101346.31;5243918;28;20024;-71
2022/10/13 17:19:19;;;;;;;16.33;14.70;;;;;;;13.63;100.00;101352.75;5244296;28;20044;-71
2022/10/13 17:21:50;;;;;;;20.58;15.65;;;;;;;13.61;100.00;101360.56;5243409;28;20108;-70
2022/10/13 17:24:22;;;;;;;18.58;16.17;;;;;;;13.60;100.00;101356.09;5243544;28;20030;-70
2022/10/13 17:26:53;;;;;;;19.60;16.42;;;;;;;13.61;100.00;101361.38;5243967;28;20117;-69
2022/10/13 17:29:24;;;;;;;18.40;16.63;;;;;;;13.61;100.00;101357.78;5243451;28;20021;-70
2022/10/13 17:31:56;;;;;;;19.63;15.95;;;;;;;13.58;100.00;101352.81;5243221;28;20032;-70
